createdAt,value
2019-05-21T00:02:28.476Z,71.80
2019-05-21T00:04:57.042Z,71.80
2019-05-21T00:07:25.577Z,71.70
2019-05-21T00:09:54.210Z,71.90
2019-05-21T00:12:22.794Z,71.80
2019-05-21T00:14:51.384Z,71.90
2019-05-21T00:17:20.068Z,71.80
2019-05-21T00:19:48.654Z,71.80
2019-05-21T00:22:17.131Z,71.70
2019-05-21T00:24:45.821Z,71.70
2019-05-21T00:27:14.358Z,71.70
2019-05-21T00:30:19.048Z,71.60
2019-05-21T00:33:23.929Z,71.60
2019-05-21T00:36:30.210Z,71.50
2019-05-21T00:39:34.629Z,71.60
2019-05-21T00:42:02.577Z,71.60
2019-05-21T00:44:33.823Z,71.80
2019-05-21T00:47:02.487Z,71.80
2019-05-21T00:49:31.068Z,71.90
2019-05-21T00:52:08.139Z,71.90
2019-05-21T00:54:29.840Z,71.90
2019-05-21T00:56:58.368Z,71.90
2019-05-21T00:59:26.870Z,71.90
2019-05-21T01:01:55.376Z,71.90
2019-05-21T01:04:23.864Z,71.90
2019-05-21T01:06:52.337Z,71.90
2019-05-21T01:09:20.954Z,72.00
2019-05-21T01:11:49.473Z,72.00
2019-05-21T01:14:18.071Z,71.90
2019-05-21T01:16:46.544Z,71.90
2019-05-21T01:19:15.025Z,71.90
2019-05-21T01:21:43.568Z,72.10
2019-05-21T01:24:12.189Z,72.10
2019-05-21T01:26:40.681Z,72.00
2019-05-21T01:29:09.254Z,72.80
2019-05-21T01:31:37.740Z,72.00
2019-05-21T01:34:06.256Z,72.00
2019-05-21T01:36:34.819Z,72.10
2019-05-21T01:39:04.619Z,73.10
2019-05-21T01:41:33.307Z,72.30
2019-05-21T01:44:01.853Z,72.30
2019-05-21T01:46:30.339Z,72.30
2019-05-21T01:48:58.842Z,72.50
2019-05-21T01:51:27.358Z,72.40
2019-05-21T01:53:55.869Z,72.50
2019-05-21T01:56:24.443Z,72.60
2019-05-21T01:58:53.007Z,72.50
2019-05-21T02:01:21.491Z,72.50
2019-05-21T02:03:50.075Z,72.40
2019-05-21T02:06:18.554Z,72.40
2019-05-21T02:08:47.045Z,72.30
2019-05-21T02:11:15.617Z,72.30
2019-05-21T02:13:44.101Z,72.30
2019-05-21T02:16:12.617Z,72.50
2019-05-21T02:18:41.206Z,72.70
2019-05-21T02:21:09.767Z,72.90
2019-05-21T02:23:38.305Z,72.80
2019-05-21T02:26:06.866Z,72.80
2019-05-21T02:28:35.379Z,72.90
2019-05-21T02:31:04.137Z,72.90
2019-05-21T02:33:32.672Z,73.00
2019-05-21T02:36:01.273Z,73.00
2019-05-21T02:38:29.860Z,73.10
2019-05-21T02:40:58.389Z,73.20
2019-05-21T02:43:26.953Z,73.20
2019-05-21T02:45:55.514Z,73.20
2019-05-21T02:48:24.373Z,73.40
2019-05-21T02:50:52.847Z,73.40
2019-05-21T02:53:21.357Z,73.30
2019-05-21T02:55:50.009Z,73.40
2019-05-21T02:58:18.559Z,73.30
2019-05-21T03:01:05.021Z,73.20
2019-05-21T03:03:34.974Z,73.30
2019-05-21T03:06:13.800Z,73.30
2019-05-21T03:08:33.712Z,73.50
2019-05-21T03:11:02.282Z,73.60
2019-05-21T03:13:30.888Z,73.60
2019-05-21T03:15:59.429Z,73.80
2019-05-21T03:18:27.927Z,73.80
2019-05-21T03:20:56.426Z,73.90
2019-05-21T03:23:24.909Z,73.80
2019-05-21T03:25:53.510Z,73.80
2019-05-21T03:28:21.997Z,73.90
2019-05-21T03:30:50.586Z,73.90
2019-05-21T03:33:19.149Z,73.80
2019-05-21T03:35:47.713Z,73.80
2019-05-21T03:38:16.327Z,73.70
2019-05-21T03:40:44.817Z,73.80
2019-05-21T03:43:13.368Z,74.10
2019-05-21T03:45:41.894Z,74.00
2019-05-21T03:48:10.505Z,74.00
2019-05-21T03:50:39.047Z,74.30
2019-05-21T03:53:07.563Z,74.30
2019-05-21T03:55:36.115Z,74.20
2019-05-21T03:58:04.748Z,74.20
2019-05-21T04:00:33.321Z,74.20
2019-05-21T04:03:01.906Z,74.40
2019-05-21T04:05:30.412Z,74.30
2019-05-21T04:07:58.885Z,74.20
2019-05-21T04:10:27.451Z,74.40
2019-05-21T04:13:08.901Z,74.60
2019-05-21T04:15:46.165Z,74.80
2019-05-21T04:18:19.134Z,74.80
2019-05-21T04:20:47.644Z,75.20
2019-05-21T04:23:16.190Z,74.90
2019-05-21T04:25:44.740Z,75.10
2019-05-21T04:28:13.289Z,75.10
2019-05-21T04:30:41.809Z,75.10
2019-05-21T04:33:10.310Z,74.90
2019-05-21T04:35:38.866Z,74.90
2019-05-21T04:38:07.435Z,75.10
2019-05-21T04:40:36.006Z,75.20
2019-05-21T04:43:04.710Z,75.00
2019-05-21T04:45:33.340Z,74.80
2019-05-21T04:48:02.589Z,74.80
2019-05-21T05:01:36.252Z,74.60
2019-05-21T05:10:35.172Z,75.30
2019-05-21T06:35:07.585Z,75.40
2019-05-21T06:43:08.692Z,75.20
2019-05-21T06:45:47.264Z,75.40
2019-05-21T06:53:35.042Z,75.70
2019-05-21T07:01:43.531Z,75.50
2019-05-21T07:10:25.895Z,75.70
2019-05-21T07:12:55.416Z,75.60
2019-05-21T07:18:44.544Z,75.40
2019-05-21T07:21:24.142Z,75.30
2019-05-21T07:23:52.892Z,75.20
2019-05-21T07:31:53.583Z,75.20
2019-05-21T07:34:22.157Z,75.40
2019-05-21T07:36:50.853Z,75.40
2019-05-21T07:39:22.712Z,75.40
2019-05-21T07:41:51.283Z,75.40
2019-05-21T07:44:19.896Z,75.40
2019-05-21T07:46:54.799Z,75.50
2019-05-21T07:49:20.882Z,75.50
2019-05-21T07:51:49.847Z,75.50
2019-05-21T07:54:21.493Z,75.70
2019-05-21T07:56:50.066Z,75.50
2019-05-21T08:10:52.609Z,75.50
2019-05-21T08:13:21.493Z,75.50
2019-05-21T08:18:48.165Z,75.60
2019-05-21T08:21:16.900Z,75.50
2019-05-21T08:23:45.816Z,75.70
2019-05-21T08:26:14.980Z,75.70
2019-05-21T08:28:44.034Z,75.70
2019-05-21T08:31:22.501Z,75.90
2019-05-21T08:33:51.114Z,75.80
2019-05-21T08:36:21.669Z,75.80
2019-05-21T08:38:50.589Z,75.70
2019-05-21T08:41:19.232Z,75.90
2019-05-21T08:43:47.905Z,76.00
2019-05-21T08:46:16.487Z,76.10
2019-05-21T08:48:45.040Z,76.10
2019-05-21T09:15:34.117Z,75.80
2019-05-21T09:18:00.973Z,75.60
2019-05-21T09:20:37.341Z,75.70
2019-05-21T09:23:13.420Z,75.80
2019-05-21T09:25:49.532Z,75.80
2019-05-21T09:37:19.890Z,75.90
2019-05-21T09:42:51.425Z,75.90
2019-05-21T09:46:19.507Z,75.90
2019-05-21T09:48:48.597Z,75.90
2019-05-21T09:51:32.849Z,75.70
2019-05-21T09:54:04.823Z,75.70
2019-05-21T09:56:47.426Z,75.70
2019-05-21T10:02:08.023Z,75.80
2019-05-21T10:16:21.734Z,75.70
2019-05-21T10:21:57.017Z,75.50
2019-05-21T10:24:25.377Z,75.50
2019-05-21T10:26:54.366Z,75.70
2019-05-21T10:32:25.196Z,75.90
2019-05-21T10:34:53.748Z,75.90
2019-05-21T10:40:08.415Z,76.00
2019-05-21T10:42:37.899Z,76.00
2019-05-21T10:45:09.476Z,75.90
2019-05-21T11:01:17.445Z,75.40
2019-05-21T11:03:59.572Z,75.40
2019-05-21T11:06:28.666Z,75.40
2019-05-21T11:08:57.392Z,75.40
2019-05-21T11:11:31.993Z,75.50
2019-05-21T11:14:14.600Z,75.50
2019-05-21T11:16:51.448Z,75.30
2019-05-21T11:19:49.244Z,75.20
2019-05-21T11:22:24.411Z,75.30
2019-05-21T11:28:06.353Z,75.30
2019-05-21T11:33:57.125Z,75.10
2019-05-21T11:36:25.646Z,75.10
2019-05-21T11:39:02.732Z,75.00
2019-05-21T11:41:31.604Z,75.00
2019-05-21T11:44:00.616Z,75.00
2019-05-21T12:23:29.990Z,74.20
2019-05-21T12:25:58.705Z,74.30
2019-05-21T12:28:32.409Z,74.20
2019-05-21T12:33:43.581Z,74.30
2019-05-21T12:39:15.081Z,74.10
2019-05-21T12:41:43.861Z,74.20
2019-05-21T12:46:46.204Z,74.50
2019-05-21T12:49:14.865Z,74.40
2019-05-21T12:51:45.362Z,75.20
2019-05-21T12:54:13.937Z,74.50
2019-05-21T12:56:42.577Z,74.60
2019-05-21T12:59:11.701Z,74.50
2019-05-21T13:01:40.417Z,74.60
2019-05-21T13:04:09.252Z,74.50
2019-05-21T13:06:43.562Z,74.60
2019-05-21T13:14:31.229Z,74.40
2019-05-21T13:28:25.572Z,74.40
2019-05-21T13:36:31.207Z,74.50
2019-05-21T13:39:03.733Z,74.60
2019-05-21T13:52:29.858Z,74.30
2019-05-21T13:54:58.447Z,74.10
2019-05-21T13:57:27.030Z,74.10
2019-05-21T13:59:55.740Z,74.30
2019-05-21T14:02:24.467Z,74.30
2019-05-21T14:04:53.063Z,74.30
2019-05-21T14:07:21.670Z,74.10
2019-05-21T14:10:12.709Z,74.10
2019-05-21T14:12:20.430Z,74.30
2019-05-21T14:14:49.116Z,74.30
2019-05-21T14:17:17.625Z,74.40
2019-05-21T14:19:46.326Z,74.50
2019-05-21T14:22:14.966Z,74.60
2019-05-21T14:24:43.525Z,74.60
2019-05-21T14:27:12.107Z,74.60
2019-05-21T14:29:43.239Z,74.60
2019-05-21T14:32:11.884Z,74.60
2019-05-21T14:34:40.547Z,74.70
2019-05-21T14:37:21.050Z,74.60
2019-05-21T14:39:54.127Z,74.50
2019-05-21T14:42:24.412Z,74.40
2019-05-21T14:44:53.040Z,74.30
2019-05-21T14:47:24.792Z,74.20
2019-05-21T14:49:55.106Z,74.20
2019-05-21T14:52:23.708Z,74.20
2019-05-21T14:54:55.032Z,74.20
2019-05-21T14:57:23.650Z,74.20
2019-05-21T15:02:18.989Z,74.00
2019-05-21T15:04:47.989Z,74.10
2019-05-21T15:07:16.725Z,74.10
2019-05-21T15:09:47.181Z,74.00
2019-05-21T15:12:15.838Z,73.90
2019-05-21T15:14:44.734Z,73.90
2019-05-21T15:17:13.323Z,74.00
2019-05-21T15:19:43.600Z,74.00
2019-05-21T15:22:12.217Z,73.80
2019-05-21T15:24:40.833Z,73.80
2019-05-21T15:27:17.114Z,73.80
2019-05-21T15:29:48.569Z,73.60
2019-05-21T15:32:35.206Z,73.50
2019-05-21T15:35:10.670Z,74.30
2019-05-21T15:38:09.771Z,73.70
2019-05-21T15:41:08.858Z,73.70
2019-05-21T15:43:22.247Z,73.20
2019-05-21T15:45:52.482Z,73.40
2019-05-21T15:48:28.274Z,73.40
2019-05-21T15:51:02.490Z,73.40
2019-05-21T15:56:17.204Z,73.00
2019-05-21T15:58:50.467Z,72.70
2019-05-21T16:01:19.165Z,72.00
2019-05-21T16:03:47.673Z,71.40
2019-05-21T16:06:16.240Z,70.90
2019-05-21T16:08:44.759Z,70.80
2019-05-21T16:11:27.350Z,71.30
2019-05-21T16:13:43.581Z,71.90
2019-05-21T16:16:12.178Z,72.10
2019-05-21T16:18:40.750Z,72.50
2019-05-21T16:21:09.350Z,72.90
2019-05-21T16:23:37.878Z,73.20
2019-05-21T16:26:06.443Z,73.30
2019-05-21T16:28:35.046Z,73.20
2019-05-21T16:31:03.610Z,73.30
2019-05-21T16:33:32.204Z,73.40
2019-05-21T16:36:00.832Z,73.40
2019-05-21T16:38:29.356Z,73.40
2019-05-21T16:40:57.883Z,73.40
2019-05-21T16:43:26.465Z,73.50
2019-05-21T16:45:54.979Z,73.60
2019-05-21T16:48:23.540Z,73.50
2019-05-21T16:50:52.079Z,73.60
2019-05-21T16:53:20.714Z,73.70
2019-05-21T16:55:49.390Z,73.60
2019-05-21T16:58:17.980Z,73.80
2019-05-21T17:00:46.634Z,73.90
2019-05-21T17:03:15.220Z,73.80
2019-05-21T17:05:43.892Z,73.60
2019-05-21T17:08:12.610Z,73.50
2019-05-21T17:10:41.247Z,73.40
2019-05-21T17:13:09.769Z,73.60
2019-05-21T17:15:38.279Z,73.70
2019-05-21T17:18:06.884Z,74.00
2019-05-21T17:20:35.467Z,73.90
2019-05-21T17:23:03.972Z,74.70
2019-05-21T17:25:32.522Z,74.20
2019-05-21T17:28:01.171Z,74.00
2019-05-21T17:30:29.814Z,74.00
2019-05-21T17:32:58.407Z,74.00
2019-05-21T17:35:27.020Z,73.90
2019-05-21T17:37:55.553Z,73.90
2019-05-21T17:40:24.105Z,73.90
2019-05-21T17:42:52.770Z,73.90
2019-05-21T17:45:21.363Z,73.90
2019-05-21T17:47:49.884Z,73.80
2019-05-21T17:50:18.515Z,73.90
2019-05-21T17:52:47.111Z,74.00
2019-05-21T17:55:15.687Z,74.00
2019-05-21T17:57:45.257Z,74.10
2019-05-21T18:00:15.126Z,74.00
2019-05-21T18:02:43.722Z,74.20
2019-05-21T18:05:12.825Z,74.30
2019-05-21T18:07:41.877Z,74.40
2019-05-21T18:10:11.175Z,74.30
2019-05-21T18:12:39.989Z,74.30
2019-05-21T18:15:10.199Z,74.20
2019-05-21T18:17:39.419Z,74.20
2019-05-21T18:20:10.608Z,74.20
2019-05-21T18:22:40.126Z,74.20
2019-05-21T18:25:08.986Z,74.30
2019-05-21T18:27:37.574Z,74.30
2019-05-21T18:30:06.672Z,74.30
2019-05-21T18:32:35.693Z,74.30
2019-05-21T18:35:06.744Z,74.40
2019-05-21T18:37:36.453Z,74.40
2019-05-21T18:40:08.349Z,74.40
2019-05-21T18:42:36.937Z,74.30
2019-05-21T18:45:07.678Z,74.40
2019-05-21T18:47:36.288Z,74.60
2019-05-21T18:50:07.162Z,74.50
2019-05-21T18:52:35.744Z,74.60
2019-05-21T18:55:05.148Z,74.50
2019-05-21T18:57:33.758Z,74.50
2019-05-21T19:00:02.246Z,74.50
2019-05-21T19:02:30.858Z,74.50
2019-05-21T19:04:59.479Z,74.60
2019-05-21T19:07:28.071Z,74.60
2019-05-21T19:09:56.659Z,74.70
2019-05-21T19:12:37.462Z,74.60
2019-05-21T19:14:55.769Z,74.70
2019-05-21T19:17:35.134Z,74.80
2019-05-21T19:19:54.509Z,74.80
2019-05-21T19:22:23.135Z,74.70
2019-05-21T19:24:51.881Z,74.60
2019-05-21T19:27:20.435Z,74.60
2019-05-21T19:29:49.016Z,74.70
2019-05-21T19:35:21.244Z,74.90
2019-05-21T19:37:49.746Z,74.90
2019-05-21T19:40:18.364Z,74.80
2019-05-21T19:42:55.015Z,74.80
2019-05-21T19:45:18.921Z,74.70
2019-05-21T19:47:47.542Z,74.90
2019-05-21T19:50:16.146Z,74.90
2019-05-21T19:52:44.729Z,75.00
2019-05-21T19:55:13.305Z,74.90
2019-05-21T19:57:42.436Z,74.80
2019-05-21T20:00:11.741Z,74.90
2019-05-21T20:02:41.116Z,75.00
2019-05-21T20:05:09.674Z,74.80
2019-05-21T20:07:39.648Z,74.80
2019-05-21T20:10:08.168Z,74.90
2019-05-21T20:12:37.096Z,74.90
2019-05-21T20:15:06.757Z,74.80
2019-05-21T20:17:35.835Z,74.90
2019-05-21T20:20:06.170Z,74.80
2019-05-21T20:22:34.925Z,74.80
2019-05-21T20:25:05.188Z,74.80
2019-05-21T20:27:33.818Z,74.80
2019-05-21T20:30:12.123Z,75.10
2019-05-21T20:32:33.782Z,75.10
2019-05-21T20:35:03.533Z,75.00
2019-05-21T20:37:38.628Z,75.00
2019-05-21T20:40:11.247Z,74.90
2019-05-21T20:42:40.670Z,74.90
2019-05-21T20:45:11.361Z,74.90
2019-05-21T20:47:39.938Z,74.90
2019-05-21T20:50:12.144Z,75.00
2019-05-21T20:52:40.856Z,74.90
2019-05-21T20:55:09.523Z,74.90
2019-05-21T20:57:38.909Z,74.90
2019-05-21T21:00:08.848Z,74.90
2019-05-21T21:02:38.443Z,74.90
2019-05-21T21:05:07.674Z,74.90
2019-05-21T21:07:37.885Z,74.80
2019-05-21T21:10:08.124Z,74.90
2019-05-21T21:12:37.272Z,75.10
2019-05-21T21:15:06.529Z,75.10
2019-05-21T21:17:35.513Z,75.10
2019-05-21T21:20:07.919Z,75.20
2019-05-21T21:22:36.489Z,75.10
2019-05-21T21:25:05.127Z,75.10
2019-05-21T21:27:33.938Z,75.80
2019-05-21T21:30:02.748Z,75.10
2019-05-21T21:32:31.376Z,75.10
2019-05-21T21:35:00.042Z,75.10
2019-05-21T21:37:28.562Z,75.10
2019-05-21T21:39:57.076Z,75.10
2019-05-21T21:42:25.658Z,75.10
2019-05-21T21:44:54.251Z,75.10
2019-05-21T21:47:22.823Z,75.20
2019-05-21T21:49:51.360Z,75.10
2019-05-21T21:52:20.094Z,75.20
2019-05-21T21:54:48.738Z,75.10
2019-05-21T21:57:17.289Z,75.10
2019-05-21T21:59:46.139Z,75.10
2019-05-21T22:02:29.065Z,75.10
2019-05-21T22:04:57.744Z,75.10
2019-05-21T22:07:26.473Z,75.20
2019-05-21T22:09:55.558Z,75.10
2019-05-21T22:12:24.803Z,75.20
2019-05-21T22:15:00.799Z,75.10
2019-05-21T22:17:29.414Z,75.10
2019-05-21T22:19:59.177Z,75.10
2019-05-21T22:22:28.249Z,75.10
2019-05-21T22:24:56.893Z,75.10
2019-05-21T22:27:26.105Z,75.10
2019-05-21T22:29:54.896Z,75.20
2019-05-21T22:32:23.680Z,75.20
2019-05-21T22:34:52.294Z,75.10
2019-05-21T22:37:22.250Z,75.10
2019-05-21T22:39:50.972Z,75.10
2019-05-21T22:42:19.854Z,75.20
2019-05-21T22:44:48.456Z,75.20
2019-05-21T22:47:17.376Z,75.20
2019-05-21T22:49:45.961Z,75.20
2019-05-21T22:52:14.611Z,75.10
2019-05-21T22:54:43.098Z,75.20
2019-05-21T22:57:11.703Z,75.10
2019-05-21T22:59:40.257Z,75.20
2019-05-21T23:02:10.426Z,75.20
2019-05-21T23:04:39.008Z,75.20
2019-05-21T23:07:07.999Z,75.10
2019-05-21T23:09:36.698Z,75.10
2019-05-21T23:12:06.885Z,75.10
2019-05-21T23:14:35.402Z,75.10
2019-05-21T23:17:05.627Z,75.10
2019-05-21T23:19:34.313Z,75.20
2019-05-21T23:22:02.904Z,75.10
2019-05-21T23:24:32.648Z,75.10
2019-05-21T23:27:02.210Z,75.00
2019-05-21T23:29:30.792Z,75.10
2019-05-21T23:31:59.276Z,75.10
2019-05-21T23:34:28.864Z,75.10
2019-05-21T23:36:58.260Z,75.20
2019-05-21T23:39:28.177Z,75.00
2019-05-21T23:41:56.789Z,75.00
2019-05-21T23:44:25.352Z,75.00
2019-05-21T23:46:54.009Z,75.10
2019-05-21T23:49:22.546Z,75.10
2019-05-21T23:51:51.157Z,75.20
2019-05-21T23:54:19.783Z,75.20
2019-05-21T23:56:48.348Z,75.10
2019-05-21T23:59:17.301Z,75.10
